createdAt,value
2019-06-07T00:00:38.648Z,0.00
2019-06-07T00:01:28.816Z,0.00
2019-06-07T00:02:28.805Z,0.00
2019-06-07T00:03:30.289Z,0.00
2019-06-07T00:04:28.789Z,0.00
2019-06-07T00:05:28.809Z,0.00
2019-06-07T00:06:28.968Z,0.00
2019-06-07T00:07:28.760Z,0.00
2019-06-07T00:08:29.368Z,0.00
2019-06-07T00:09:28.739Z,0.00
2019-06-07T00:10:36.685Z,0.00
2019-06-07T00:11:28.718Z,0.00
2019-06-07T00:12:28.709Z,0.00
2019-06-07T00:13:28.702Z,0.00
2019-06-07T00:14:28.692Z,0.00
2019-06-07T00:15:29.418Z,0.00
2019-06-07T00:16:28.675Z,0.00
2019-06-07T00:17:28.674Z,0.00
2019-06-07T00:18:28.651Z,0.00
2019-06-07T00:19:28.644Z,0.00
2019-06-07T00:20:28.635Z,0.00
2019-06-07T00:22:12.726Z,0.00
2019-06-07T00:22:33.081Z,0.00
2019-06-07T00:23:28.604Z,0.00
2019-06-07T00:24:28.597Z,0.00
2019-06-07T00:25:28.590Z,0.00
2019-06-07T00:26:28.576Z,0.00
2019-06-07T00:27:28.582Z,0.00
2019-06-07T00:28:28.556Z,0.00
2019-06-07T00:29:28.553Z,0.00
2019-06-07T00:30:41.190Z,0.00
2019-06-07T00:31:28.534Z,0.00
2019-06-07T00:32:28.519Z,0.00
2019-06-07T00:33:28.509Z,0.00
2019-06-07T00:34:28.500Z,0.00
2019-06-07T00:35:28.488Z,0.00
2019-06-07T00:36:28.481Z,0.00
2019-06-07T00:37:28.481Z,0.00
2019-06-07T00:38:28.459Z,0.00
2019-06-07T00:39:28.454Z,0.00
2019-06-07T00:40:32.102Z,0.00
2019-06-07T00:41:28.488Z,0.00
2019-06-07T00:42:28.426Z,0.00
2019-06-07T00:43:28.764Z,0.00
2019-06-07T00:44:28.412Z,0.00
2019-06-07T00:45:28.393Z,0.00
2019-06-07T00:46:28.382Z,0.00
2019-06-07T00:47:28.376Z,0.00
2019-06-07T00:48:32.576Z,0.00
2019-06-07T00:49:40.684Z,0.00
2019-06-07T00:50:28.343Z,0.00
2019-06-07T00:51:47.566Z,0.00
2019-06-07T00:53:32.005Z,0.00
2019-06-07T00:54:28.308Z,0.00
2019-06-07T00:55:28.297Z,0.00
2019-06-07T00:56:28.289Z,0.00
2019-06-07T00:57:28.287Z,0.00
2019-06-07T00:58:29.533Z,0.00
2019-06-07T00:59:29.490Z,0.00
2019-06-07T01:00:28.251Z,0.00
2019-06-07T01:01:28.238Z,0.00
2019-06-07T01:02:31.425Z,0.00
2019-06-07T01:03:28.219Z,0.00
2019-06-07T01:04:28.212Z,0.00
2019-06-07T01:05:31.286Z,0.00
2019-06-07T01:06:28.194Z,0.00
2019-06-07T01:07:28.187Z,0.00
2019-06-07T01:08:30.118Z,0.00
2019-06-07T01:09:28.167Z,0.00
2019-06-07T01:10:51.802Z,0.00
2019-06-07T01:11:28.143Z,0.00
2019-06-07T01:12:28.132Z,0.00
2019-06-07T01:13:28.123Z,0.00
2019-06-07T01:14:28.981Z,0.00
2019-06-07T01:15:29.361Z,0.00
2019-06-07T01:16:28.098Z,0.00
2019-06-07T01:17:41.176Z,0.00
2019-06-07T01:18:39.240Z,0.00
2019-06-07T01:19:28.180Z,0.00
2019-06-07T01:20:28.109Z,0.00
2019-06-07T01:21:29.323Z,0.00
2019-06-07T01:22:29.372Z,0.00
2019-06-07T01:24:04.937Z,0.00
2019-06-07T01:24:28.296Z,0.00
2019-06-07T01:25:28.950Z,0.00
2019-06-07T01:26:30.409Z,0.00
2019-06-07T01:27:28.761Z,0.00
2019-06-07T01:28:30.207Z,0.00
2019-06-07T01:29:30.873Z,0.00
2019-06-07T01:30:29.281Z,0.00
2019-06-07T01:31:31.337Z,0.00
2019-06-07T01:32:31.657Z,0.00
2019-06-07T01:33:49.313Z,0.00
2019-06-07T01:34:28.889Z,0.00
2019-06-07T01:35:29.938Z,0.00
2019-06-07T01:36:29.555Z,0.00
2019-06-07T01:37:30.098Z,0.00
2019-06-07T01:38:30.002Z,0.00
2019-06-07T01:39:29.755Z,0.00
2019-06-07T01:40:32.310Z,0.00
2019-06-07T01:41:30.631Z,0.00
2019-06-07T01:42:29.492Z,0.00
2019-06-07T01:43:30.554Z,0.00
2019-06-07T01:44:30.671Z,0.00
2019-06-07T01:45:30.923Z,0.00
2019-06-07T01:46:28.760Z,0.00
2019-06-07T01:47:31.239Z,0.00
2019-06-07T01:48:46.210Z,0.00
2019-06-07T01:49:29.538Z,0.00
2019-06-07T01:50:29.618Z,0.00
2019-06-07T01:51:30.452Z,0.00
2019-06-07T01:52:29.586Z,0.00
2019-06-07T01:53:29.099Z,0.00
2019-06-07T01:54:53.358Z,0.00
2019-06-07T01:55:32.349Z,0.00
2019-06-07T01:56:29.840Z,0.00
2019-06-07T01:57:44.727Z,0.00
2019-06-07T01:58:29.213Z,0.00
2019-06-07T01:59:28.594Z,0.00
2019-06-07T02:00:31.906Z,0.00
2019-06-07T02:01:34.633Z,0.00
2019-06-07T02:02:30.030Z,0.00
2019-06-07T02:03:32.159Z,0.00
2019-06-07T02:04:32.410Z,0.00
2019-06-07T02:05:30.988Z,0.00
2019-06-07T02:06:31.820Z,0.00
2019-06-07T02:07:32.602Z,0.00
2019-06-07T02:08:34.094Z,0.00
2019-06-07T02:09:29.888Z,0.00
2019-06-07T02:10:32.525Z,0.00
2019-06-07T02:11:29.333Z,0.00
2019-06-07T02:12:37.612Z,0.00
2019-06-07T02:13:29.344Z,0.00
2019-06-07T02:14:32.440Z,0.00
2019-06-07T02:15:31.107Z,0.00
2019-06-07T02:16:30.346Z,0.00
2019-06-07T02:17:30.157Z,0.00
2019-06-07T02:18:29.139Z,0.00
2019-06-07T02:19:31.307Z,0.00
2019-06-07T02:20:33.484Z,0.00
2019-06-07T02:21:30.388Z,0.00
2019-06-07T02:22:30.550Z,0.00
2019-06-07T02:23:30.934Z,0.00
2019-06-07T02:24:29.609Z,0.00
2019-06-07T02:25:38.285Z,0.00
2019-06-07T02:26:29.959Z,0.00
2019-06-07T02:27:27.586Z,0.00
2019-06-07T02:28:42.664Z,0.00
2019-06-07T02:29:30.257Z,0.00
2019-06-07T02:30:51.022Z,0.00
2019-06-07T02:31:31.483Z,0.00
2019-06-07T02:32:32.015Z,0.00
2019-06-07T02:33:33.528Z,0.00
2019-06-07T02:34:34.812Z,0.00
2019-06-07T02:35:34.857Z,0.00
2019-06-07T02:36:30.496Z,0.00
2019-06-07T02:37:31.618Z,0.00
2019-06-07T02:38:31.066Z,0.00
2019-06-07T02:39:28.827Z,0.00
2019-06-07T02:40:32.343Z,0.00
2019-06-07T02:41:33.622Z,0.00
2019-06-07T02:42:30.792Z,0.00
2019-06-07T02:43:28.353Z,0.00
2019-06-07T02:44:31.810Z,0.00
2019-06-07T02:45:35.528Z,0.00
2019-06-07T02:46:36.226Z,0.00
2019-06-07T02:47:28.678Z,0.00
2019-06-07T02:48:32.506Z,0.00
2019-06-07T02:49:32.965Z,0.00
2019-06-07T02:50:29.139Z,0.00
2019-06-07T02:51:32.730Z,0.00
2019-06-07T02:52:31.666Z,0.00
2019-06-07T02:53:29.658Z,0.00
2019-06-07T02:54:29.904Z,0.00
2019-06-07T02:55:30.780Z,0.00
2019-06-07T02:56:39.042Z,0.00
2019-06-07T02:57:29.381Z,0.00
2019-06-07T02:58:31.130Z,0.00
2019-06-07T02:59:54.934Z,0.00
2019-06-07T03:00:45.758Z,0.00
2019-06-07T03:01:28.532Z,0.00
2019-06-07T03:02:32.843Z,0.00
2019-06-07T03:03:30.048Z,0.00
2019-06-07T03:04:29.007Z,0.00
2019-06-07T03:05:27.385Z,0.00
2019-06-07T03:06:29.852Z,4.00
2019-06-07T03:07:28.295Z,4.00
2019-06-07T03:08:28.261Z,0.00
2019-06-07T03:09:30.847Z,0.00
2019-06-07T03:10:28.551Z,4.00
2019-06-07T03:11:28.212Z,4.00
2019-06-07T03:12:28.969Z,0.00
2019-06-07T03:13:28.896Z,4.00
2019-06-07T03:14:28.517Z,4.00
2019-06-07T03:15:38.733Z,4.00
2019-06-07T03:16:26.934Z,4.00
2019-06-07T03:17:27.665Z,8.00
2019-06-07T03:18:29.017Z,8.00
2019-06-07T03:19:26.905Z,8.00
2019-06-07T03:20:27.599Z,8.00
2019-06-07T03:21:28.173Z,8.00
2019-06-07T03:22:26.896Z,8.00
2019-06-07T03:23:28.707Z,12.00
2019-06-07T03:24:31.070Z,12.00
2019-06-07T03:25:28.179Z,8.00
2019-06-07T03:26:27.591Z,16.00
2019-06-07T03:27:36.083Z,16.00
2019-06-07T03:28:27.575Z,16.00
2019-06-07T03:29:28.868Z,20.00
2019-06-07T03:30:59.674Z,20.00
2019-06-07T03:31:28.467Z,20.00
2019-06-07T03:32:30.302Z,20.00
2019-06-07T03:33:26.915Z,24.00
2019-06-07T03:34:29.705Z,24.00
2019-06-07T03:35:28.378Z,28.00
2019-06-07T03:36:27.549Z,32.00
2019-06-07T03:37:28.065Z,32.00
2019-06-07T03:38:27.622Z,32.00
2019-06-07T03:39:28.444Z,36.00
2019-06-07T03:40:26.773Z,36.00
2019-06-07T03:41:29.203Z,40.00
2019-06-07T03:42:26.708Z,40.00
2019-06-07T03:43:27.340Z,44.00
2019-06-07T03:44:28.663Z,48.00
2019-06-07T03:45:28.622Z,48.00
2019-06-07T03:46:27.330Z,52.00
2019-06-07T03:47:30.611Z,56.00
2019-06-07T03:48:28.476Z,60.00
2019-06-07T03:49:28.035Z,60.00
2019-06-07T03:50:30.601Z,64.00
2019-06-07T03:51:27.409Z,68.00
2019-06-07T03:52:27.450Z,72.00
2019-06-07T03:53:30.468Z,72.00
2019-06-07T03:54:27.248Z,72.00
2019-06-07T03:55:27.805Z,84.00
2019-06-07T03:56:28.304Z,88.00
2019-06-07T03:57:28.714Z,100.00
2019-06-07T03:58:32.076Z,104.00
2019-06-07T03:59:28.421Z,108.00
2019-06-07T04:00:28.830Z,112.00
2019-06-07T04:01:28.596Z,116.00
2019-06-07T04:02:27.861Z,124.00
2019-06-07T04:03:36.100Z,132.00
2019-06-07T04:04:27.354Z,136.00
2019-06-07T04:05:28.242Z,144.00
2019-06-07T04:06:28.834Z,148.00
2019-06-07T04:07:28.957Z,156.00
2019-06-07T04:08:26.815Z,156.00
2019-06-07T04:09:26.440Z,160.00
2019-06-07T04:10:44.895Z,160.00
2019-06-07T04:11:26.423Z,160.00
2019-06-07T04:12:26.411Z,168.00
2019-06-07T04:13:26.450Z,172.00
2019-06-07T04:14:26.393Z,176.00
2019-06-07T04:15:26.386Z,184.00
2019-06-07T04:16:26.379Z,192.00
2019-06-07T04:17:26.365Z,196.00
2019-06-07T04:18:26.359Z,200.00
2019-06-07T04:19:26.348Z,204.00
2019-06-07T04:20:26.343Z,212.00
2019-06-07T04:21:26.333Z,216.00
2019-06-07T04:22:26.319Z,224.00
2019-06-07T04:23:29.848Z,228.00
2019-06-07T04:24:26.305Z,236.00
2019-06-07T04:25:26.296Z,240.00
2019-06-07T04:26:26.286Z,248.00
2019-06-07T04:27:26.276Z,256.00
2019-06-07T04:29:19.044Z,264.00
2019-06-07T04:29:54.667Z,264.00
2019-06-07T04:30:26.251Z,268.00
2019-06-07T04:31:26.239Z,276.00
2019-06-07T04:32:26.231Z,288.00
2019-06-07T04:33:26.226Z,300.00
2019-06-07T04:34:26.215Z,304.00
2019-06-07T04:35:26.207Z,308.00
2019-06-07T04:36:42.830Z,316.00
2019-06-07T04:37:26.187Z,324.00
2019-06-07T04:38:26.180Z,336.00
2019-06-07T04:39:26.169Z,340.00
2019-06-07T04:40:26.159Z,352.00
2019-06-07T04:41:26.150Z,364.00
2019-06-07T04:42:26.144Z,376.00
2019-06-07T04:43:26.134Z,388.00
2019-06-07T04:44:26.126Z,396.00
2019-06-07T04:45:40.574Z,404.00
2019-06-07T04:46:26.108Z,420.00
2019-06-07T04:47:26.098Z,448.00
2019-06-07T04:48:26.089Z,468.00
2019-06-07T04:49:26.081Z,480.00
2019-06-07T04:50:26.069Z,480.00
2019-06-07T04:51:26.060Z,480.00
2019-06-07T04:52:26.064Z,484.00
2019-06-07T04:53:26.042Z,500.00
2019-06-07T04:54:26.033Z,508.00
2019-06-07T04:55:26.024Z,508.00
2019-06-07T04:56:26.017Z,508.00
2019-06-07T04:57:26.012Z,528.00
2019-06-07T04:58:25.998Z,560.00
2019-06-07T05:00:04.300Z,604.00
2019-06-07T05:00:48.469Z,644.00
2019-06-07T05:01:27.674Z,684.00
2019-06-07T05:02:25.984Z,728.00
2019-06-07T05:03:25.952Z,732.00
2019-06-07T05:04:25.947Z,692.00
2019-06-07T05:05:25.937Z,656.00
2019-06-07T05:06:25.930Z,652.00
2019-06-07T05:07:26.572Z,660.00
2019-06-07T05:08:28.358Z,652.00
2019-06-07T05:09:25.901Z,636.00
2019-06-07T05:10:25.894Z,628.00
2019-06-07T05:11:25.883Z,624.00
2019-06-07T05:12:25.875Z,628.00
2019-06-07T05:13:25.864Z,636.00
2019-06-07T05:14:25.855Z,648.00
2019-06-07T05:15:25.848Z,664.00
2019-06-07T05:16:25.841Z,684.00
2019-06-07T05:17:25.829Z,688.00
2019-06-07T05:18:25.820Z,692.00
2019-06-07T05:19:25.813Z,712.00
2019-06-07T05:20:25.803Z,736.00
2019-06-07T05:21:48.198Z,736.00
2019-06-07T05:22:25.784Z,712.00
2019-06-07T05:24:02.538Z,708.00
2019-06-07T05:24:25.766Z,740.00
2019-06-07T05:25:25.758Z,768.00
2019-06-07T05:26:25.749Z,772.00
2019-06-07T05:27:25.742Z,768.00
2019-06-07T05:28:25.735Z,804.00
2019-06-07T05:29:25.722Z,868.00
2019-06-07T05:30:58.531Z,888.00
2019-06-07T05:31:25.708Z,868.00
2019-06-07T05:32:25.699Z,812.00
2019-06-07T05:33:25.687Z,884.00
2019-06-07T05:34:25.680Z,980.00
2019-06-07T05:35:25.669Z,980.00
2019-06-07T05:36:25.662Z,948.00
2019-06-07T05:37:25.653Z,952.00
2019-06-07T05:38:25.644Z,1024.00
2019-06-07T05:39:25.639Z,1120.00
2019-06-07T05:40:25.629Z,1144.00
2019-06-07T05:41:25.619Z,1124.00
2019-06-07T05:42:25.605Z,1056.00
2019-06-07T05:43:25.677Z,1048.00
2019-06-07T05:44:25.595Z,1084.00
2019-06-07T05:45:25.583Z,1064.00
2019-06-07T05:46:25.571Z,1064.00
2019-06-07T05:47:25.580Z,1020.00
2019-06-07T05:48:26.893Z,976.00
2019-06-07T05:49:25.548Z,956.00
2019-06-07T05:50:38.920Z,888.00
2019-06-07T05:51:25.528Z,892.00
2019-06-07T05:52:25.523Z,916.00
2019-06-07T05:53:25.513Z,924.00
2019-06-07T05:54:25.509Z,960.00
2019-06-07T05:55:25.494Z,964.00
2019-06-07T05:56:25.488Z,968.00
2019-06-07T05:57:25.478Z,984.00
2019-06-07T05:58:25.469Z,916.00
2019-06-07T05:59:25.462Z,1020.00
2019-06-07T06:00:25.450Z,1032.00
2019-06-07T06:01:42.679Z,1064.00
2019-06-07T06:02:25.520Z,1084.00
2019-06-07T06:03:25.423Z,1068.00
2019-06-07T06:04:25.446Z,1076.00
2019-06-07T06:05:34.504Z,1072.00
2019-06-07T06:06:25.399Z,1016.00
2019-06-07T06:07:25.391Z,956.00
2019-06-07T06:08:25.445Z,984.00
2019-06-07T06:09:25.374Z,988.00
2019-06-07T06:10:25.367Z,988.00
2019-06-07T06:11:42.988Z,988.00
2019-06-07T06:12:35.312Z,992.00
2019-06-07T06:13:25.340Z,1004.00
2019-06-07T06:14:25.341Z,1060.00
2019-06-07T06:15:41.762Z,1096.00
2019-06-07T06:16:25.314Z,1096.00
2019-06-07T06:17:25.304Z,1116.00
2019-06-07T06:18:25.297Z,1116.00
2019-06-07T06:19:25.288Z,1108.00
2019-06-07T06:20:32.948Z,1120.00
2019-06-07T06:21:25.273Z,1100.00
2019-06-07T06:22:25.263Z,1092.00
2019-06-07T06:23:25.253Z,1108.00
2019-06-07T06:24:25.245Z,1096.00
2019-06-07T06:25:34.084Z,1088.00
2019-06-07T06:26:25.227Z,1068.00
2019-06-07T06:28:03.335Z,1120.00
2019-06-07T06:28:25.212Z,1168.00
2019-06-07T06:29:25.205Z,1184.00
2019-06-07T06:30:25.195Z,1216.00
2019-06-07T06:31:25.188Z,1176.00
2019-06-07T06:32:46.954Z,1260.00
2019-06-07T06:33:33.427Z,1300.00
2019-06-07T06:34:25.163Z,1308.00
2019-06-07T06:35:25.153Z,1308.00
2019-06-07T06:36:25.147Z,1372.00
2019-06-07T06:37:25.139Z,1504.00
2019-06-07T06:38:25.128Z,1628.00
2019-06-07T06:39:25.121Z,1676.00
2019-06-07T06:40:25.123Z,1444.00
2019-06-07T06:41:25.105Z,1548.00
2019-06-07T06:42:25.095Z,1652.00
2019-06-07T06:43:25.084Z,1876.00
2019-06-07T06:44:25.078Z,2080.00
2019-06-07T06:45:25.070Z,2196.00
2019-06-07T06:46:38.183Z,2228.00
2019-06-07T06:47:25.054Z,2328.00
2019-06-07T06:48:25.052Z,2516.00
2019-06-07T06:49:25.111Z,2400.00
2019-06-07T06:50:25.027Z,2056.00
2019-06-07T06:51:25.018Z,1920.00
2019-06-07T06:52:25.012Z,1872.00
2019-06-07T06:53:25.005Z,1828.00
2019-06-07T06:54:40.341Z,1732.00
2019-06-07T06:55:24.993Z,1636.00
2019-06-07T06:56:24.982Z,1580.00
2019-06-07T06:57:24.972Z,1560.00
2019-06-07T06:58:24.966Z,1576.00
2019-06-07T06:59:38.631Z,1712.00
2019-06-07T07:00:43.188Z,1880.00
2019-06-07T07:01:24.938Z,1876.00
2019-06-07T07:02:24.967Z,1944.00
2019-06-07T07:04:11.173Z,2056.00
2019-06-07T07:04:24.914Z,1988.00
2019-06-07T07:05:24.908Z,1784.00
2019-06-07T07:06:26.743Z,1736.00
2019-06-07T07:07:24.888Z,1832.00
2019-06-07T07:08:24.883Z,1960.00
2019-06-07T07:09:24.905Z,2100.00
2019-06-07T07:10:24.868Z,2240.00
2019-06-07T07:11:24.854Z,2308.00
2019-06-07T07:12:24.848Z,2348.00
2019-06-07T07:13:24.843Z,2536.00
2019-06-07T07:14:24.831Z,2824.00
2019-06-07T07:15:24.822Z,3124.00
2019-06-07T07:16:24.813Z,3260.00
2019-06-07T07:17:47.063Z,3396.00
2019-06-07T07:18:24.800Z,3288.00
2019-06-07T07:19:24.790Z,2920.00
2019-06-07T07:20:24.943Z,2464.00
2019-06-07T07:21:24.777Z,2184.00
2019-06-07T07:22:24.763Z,2136.00
2019-06-07T07:23:24.753Z,2432.00
2019-06-07T07:24:24.750Z,2736.00
2019-06-07T07:25:24.742Z,3020.00
2019-06-07T07:26:24.732Z,3096.00
2019-06-07T07:27:24.729Z,2780.00
2019-06-07T07:28:24.716Z,2652.00
2019-06-07T07:29:24.706Z,2740.00
2019-06-07T07:30:36.684Z,2692.00
2019-06-07T07:31:24.692Z,2628.00
2019-06-07T07:32:24.686Z,2672.00
2019-06-07T07:33:24.673Z,2672.00
2019-06-07T07:34:34.472Z,2772.00
2019-06-07T07:35:24.660Z,2968.00
2019-06-07T07:36:38.725Z,2900.00
2019-06-07T07:37:24.658Z,2668.00
2019-06-07T07:38:24.633Z,2672.00
2019-06-07T07:39:24.625Z,2780.00
2019-06-07T07:41:24.609Z,2732.00
2019-06-07T07:42:24.610Z,2796.00
2019-06-07T07:43:24.594Z,3036.00
2019-06-07T07:44:24.590Z,3180.00
2019-06-07T07:45:24.577Z,3276.00
2019-06-07T07:46:29.724Z,3320.00
2019-06-07T07:47:24.564Z,3196.00
2019-06-07T07:48:24.554Z,3140.00
2019-06-07T07:49:24.551Z,3056.00
2019-06-07T07:50:24.545Z,3032.00
2019-06-07T07:51:24.533Z,3172.00
2019-06-07T07:52:24.528Z,3284.00
2019-06-07T07:53:24.644Z,3236.00
2019-06-07T07:54:24.507Z,3348.00
2019-06-07T07:55:24.591Z,3568.00
2019-06-07T07:56:24.492Z,3636.00
2019-06-07T07:57:24.487Z,3752.00
2019-06-07T07:58:24.487Z,3864.00
2019-06-07T07:59:41.349Z,3804.00
2019-06-07T08:00:57.666Z,3720.00
2019-06-07T08:01:24.455Z,3620.00
2019-06-07T08:02:24.450Z,3812.00
2019-06-07T08:03:24.442Z,4044.00
2019-06-07T08:05:12.348Z,4072.00
2019-06-07T08:05:41.573Z,4208.00
2019-06-07T08:06:24.420Z,4184.00
2019-06-07T08:07:24.413Z,4036.00
2019-06-07T08:08:24.409Z,3764.00
2019-06-07T08:09:24.404Z,3796.00
2019-06-07T08:10:24.392Z,3780.00
2019-06-07T08:11:24.382Z,3688.00
2019-06-07T08:12:24.400Z,3728.00
2019-06-07T08:13:26.864Z,3696.00
2019-06-07T08:14:24.364Z,3756.00
2019-06-07T08:15:24.363Z,3972.00
2019-06-07T08:16:24.349Z,3976.00
2019-06-07T08:17:24.348Z,3304.00
2019-06-07T08:18:24.342Z,3424.00
2019-06-07T08:19:24.327Z,3140.00
2019-06-07T08:20:24.320Z,3216.00
2019-06-07T08:21:26.567Z,3348.00
2019-06-07T08:22:24.304Z,3400.00
2019-06-07T08:23:24.300Z,3216.00
2019-06-07T08:24:24.292Z,3284.00
2019-06-07T08:25:24.286Z,3444.00
2019-06-07T08:26:24.295Z,3748.00
2019-06-07T08:27:26.725Z,3564.00
2019-06-07T08:28:24.261Z,3900.00
2019-06-07T08:29:24.260Z,3880.00
2019-06-07T08:31:24.243Z,2980.00
2019-06-07T08:32:24.235Z,3100.00
2019-06-07T08:33:26.376Z,3364.00
2019-06-07T08:34:24.221Z,3360.00
2019-06-07T08:36:03.792Z,3396.00
2019-06-07T08:36:40.824Z,3424.00
2019-06-07T08:38:13.241Z,3388.00
2019-06-07T08:38:33.827Z,3480.00
2019-06-07T08:39:24.211Z,3316.00
2019-06-07T08:40:24.181Z,3224.00
2019-06-07T08:41:24.174Z,3324.00
2019-06-07T08:42:36.523Z,3712.00
2019-06-07T08:43:24.164Z,3328.00
2019-06-07T08:44:25.697Z,3428.00
2019-06-07T08:45:24.149Z,3480.00
2019-06-07T08:46:24.138Z,3352.00
2019-06-07T08:47:24.133Z,3276.00
2019-06-07T08:48:27.907Z,3316.00
2019-06-07T08:49:24.118Z,3216.00
2019-06-07T08:50:24.115Z,3640.00
2019-06-07T08:51:24.108Z,3452.00
2019-06-07T08:52:24.099Z,3448.00
2019-06-07T08:53:24.094Z,3236.00
2019-06-07T08:54:24.090Z,3200.00
2019-06-07T08:55:24.081Z,3252.00
2019-06-07T08:56:24.078Z,3280.00
2019-06-07T08:57:24.071Z,3156.00
2019-06-07T08:58:24.061Z,3096.00
2019-06-07T08:59:24.060Z,3056.00
2019-06-07T09:01:24.045Z,3036.00
2019-06-07T09:02:25.758Z,2992.00
2019-06-07T09:03:24.034Z,2908.00
2019-06-07T09:04:24.025Z,2868.00
2019-06-07T09:05:24.023Z,2848.00
2019-06-07T09:07:02.523Z,2900.00
2019-06-07T09:07:24.008Z,2900.00
2019-06-07T09:08:30.481Z,2812.00
2019-06-07T09:09:24.037Z,2796.00
2019-06-07T09:10:23.993Z,2608.00
2019-06-07T09:11:23.985Z,2468.00
2019-06-07T09:12:23.982Z,2716.00
2019-06-07T09:13:23.979Z,2504.00
2019-06-07T09:14:23.968Z,2820.00
2019-06-07T09:15:24.544Z,2892.00
2019-06-07T09:16:23.958Z,2832.00
2019-06-07T09:17:23.949Z,2688.00
2019-06-07T09:18:41.098Z,2652.00
2019-06-07T09:19:23.940Z,2636.00
2019-06-07T09:20:36.278Z,2636.00
2019-06-07T09:21:23.929Z,2704.00
2019-06-07T09:22:23.923Z,2788.00
2019-06-07T09:23:23.916Z,2848.00
2019-06-07T09:24:23.912Z,2768.00
2019-06-07T09:25:23.907Z,2712.00
2019-06-07T09:26:23.901Z,2656.00
2019-06-07T09:27:23.893Z,2580.00
2019-06-07T09:28:23.890Z,2548.00
2019-06-07T09:29:23.889Z,2528.00
2019-06-07T09:30:23.879Z,2520.00
2019-06-07T09:31:23.876Z,2508.00
2019-06-07T09:32:23.879Z,2496.00
2019-06-07T09:33:23.863Z,2464.00
2019-06-07T09:34:23.858Z,2460.00
2019-06-07T09:35:23.852Z,2440.00
2019-06-07T09:36:23.929Z,2436.00
2019-06-07T09:38:03.624Z,2444.00
2019-06-07T09:38:26.225Z,2452.00
2019-06-07T09:39:23.833Z,2452.00
2019-06-07T09:40:27.594Z,2456.00
2019-06-07T09:41:45.796Z,2452.00
2019-06-07T09:42:23.817Z,2452.00
2019-06-07T09:44:00.756Z,2444.00
2019-06-07T09:44:26.095Z,2440.00
2019-06-07T09:45:23.804Z,2436.00
2019-06-07T09:46:23.795Z,2424.00
2019-06-07T09:47:32.335Z,2428.00
2019-06-07T09:49:09.031Z,2412.00
2019-06-07T09:49:31.928Z,2412.00
2019-06-07T09:50:23.780Z,2404.00
2019-06-07T09:51:23.775Z,2404.00
2019-06-07T09:52:23.770Z,2392.00
2019-06-07T09:53:23.802Z,2400.00
2019-06-07T09:55:04.090Z,2404.00
2019-06-07T09:55:25.188Z,2396.00
2019-06-07T09:56:23.751Z,2404.00
2019-06-07T09:57:23.748Z,2400.00
2019-06-07T09:58:51.198Z,2400.00
2019-06-07T09:59:23.737Z,2392.00
2019-06-07T10:00:39.648Z,2388.00
2019-06-07T10:01:23.729Z,2384.00
2019-06-07T10:02:23.722Z,2376.00
2019-06-07T10:03:23.725Z,2364.00
2019-06-07T10:04:31.153Z,2372.00
2019-06-07T10:05:23.709Z,2384.00
2019-06-07T10:06:23.702Z,2388.00
2019-06-07T10:07:31.237Z,2376.00
2019-06-07T10:09:42.510Z,2384.00
2019-06-07T10:10:09.258Z,2380.00
2019-06-07T10:11:23.680Z,2376.00
2019-06-07T10:12:23.676Z,2376.00
2019-06-07T10:13:23.672Z,2368.00
2019-06-07T10:14:23.682Z,2360.00
2019-06-07T10:15:23.665Z,2368.00
2019-06-07T10:16:23.661Z,2368.00
2019-06-07T10:17:23.659Z,2360.00
2019-06-07T10:18:23.652Z,2360.00
2019-06-07T10:19:23.655Z,2356.00
2019-06-07T10:20:23.643Z,2360.00
2019-06-07T10:21:23.641Z,2356.00
2019-06-07T10:22:23.633Z,2356.00
2019-06-07T10:23:23.637Z,2356.00
2019-06-07T10:24:23.629Z,2356.00
2019-06-07T10:25:23.624Z,2348.00
2019-06-07T10:26:23.617Z,2336.00
2019-06-07T10:27:23.615Z,2340.00
2019-06-07T10:28:23.609Z,2332.00
2019-06-07T10:29:23.643Z,2332.00
2019-06-07T10:30:23.600Z,2344.00
2019-06-07T10:31:23.600Z,2344.00
2019-06-07T10:32:23.688Z,2344.00
2019-06-07T10:33:23.592Z,2340.00
2019-06-07T10:34:23.590Z,2336.00
2019-06-07T10:35:23.600Z,2336.00
2019-06-07T10:36:23.578Z,2324.00
2019-06-07T10:37:23.578Z,2328.00
2019-06-07T10:38:23.568Z,2328.00
2019-06-07T10:39:23.565Z,2332.00
2019-06-07T10:40:23.564Z,2332.00
2019-06-07T10:41:23.561Z,2332.00
2019-06-07T10:42:23.554Z,2332.00
2019-06-07T10:43:23.557Z,2332.00
2019-06-07T10:44:23.559Z,2328.00
2019-06-07T10:45:23.547Z,2320.00
2019-06-07T10:46:23.550Z,2328.00
2019-06-07T10:47:23.541Z,2328.00
2019-06-07T10:48:25.127Z,2328.00
2019-06-07T10:49:23.533Z,2332.00
2019-06-07T10:50:23.526Z,2332.00
2019-06-07T10:51:23.524Z,2328.00
2019-06-07T10:52:23.521Z,2328.00
2019-06-07T10:53:23.516Z,2328.00
2019-06-07T10:54:29.422Z,2328.00
2019-06-07T10:55:23.508Z,2336.00
2019-06-07T10:56:23.510Z,2332.00
2019-06-07T10:57:23.504Z,2336.00
2019-06-07T10:58:23.502Z,2336.00
2019-06-07T10:59:23.496Z,2340.00
2019-06-07T11:00:23.507Z,2344.00
2019-06-07T11:01:23.490Z,2336.00
2019-06-07T11:02:23.490Z,2336.00
2019-06-07T11:03:23.482Z,2340.00
2019-06-07T11:04:23.504Z,2340.00
2019-06-07T11:05:23.481Z,2344.00
2019-06-07T11:06:23.474Z,2340.00
2019-06-07T11:07:23.471Z,2344.00
2019-06-07T11:08:23.467Z,2348.00
2019-06-07T11:09:23.466Z,2352.00
2019-06-07T11:10:23.462Z,2352.00
2019-06-07T11:11:23.459Z,2356.00
2019-06-07T11:12:23.467Z,2344.00
2019-06-07T11:13:23.454Z,2360.00
2019-06-07T11:14:23.451Z,2364.00
2019-06-07T11:15:23.457Z,2360.00
2019-06-07T11:16:23.444Z,2360.00
2019-06-07T11:17:23.444Z,2360.00
2019-06-07T11:18:23.437Z,2360.00
2019-06-07T11:19:23.435Z,2360.00
2019-06-07T11:20:23.436Z,2364.00
2019-06-07T11:21:23.433Z,2380.00
2019-06-07T11:22:23.426Z,2380.00
2019-06-07T11:23:23.426Z,2380.00
2019-06-07T11:24:24.687Z,2380.00
2019-06-07T11:25:23.419Z,2380.00
2019-06-07T11:26:23.415Z,2380.00
2019-06-07T11:27:23.413Z,2392.00
2019-06-07T11:28:23.409Z,2384.00
2019-06-07T11:29:23.413Z,2384.00
2019-06-07T11:30:23.420Z,2392.00
2019-06-07T11:31:23.406Z,2388.00
2019-06-07T11:32:23.403Z,2380.00
2019-06-07T11:33:23.397Z,2388.00
2019-06-07T11:34:23.393Z,2392.00
2019-06-07T11:35:23.392Z,2388.00
2019-06-07T11:36:23.388Z,2384.00
2019-06-07T11:37:23.386Z,2392.00
2019-06-07T11:38:23.387Z,2400.00
2019-06-07T11:39:23.381Z,2392.00
2019-06-07T11:40:34.479Z,2396.00
2019-06-07T11:41:23.380Z,2396.00
2019-06-07T11:42:23.373Z,2396.00
2019-06-07T11:43:23.371Z,2412.00
2019-06-07T11:44:23.371Z,2416.00
2019-06-07T11:45:23.367Z,2412.00
2019-06-07T11:46:23.369Z,2412.00
2019-06-07T11:47:23.361Z,2416.00
2019-06-07T11:48:23.360Z,2420.00
2019-06-07T11:49:23.355Z,2424.00
2019-06-07T11:50:23.351Z,2416.00
2019-06-07T11:51:23.353Z,2420.00
2019-06-07T11:52:23.350Z,2416.00
2019-06-07T11:53:23.351Z,2416.00
2019-06-07T11:54:23.346Z,2420.00
2019-06-07T11:55:23.344Z,2424.00
2019-06-07T11:56:23.342Z,2420.00
2019-06-07T11:57:23.339Z,2428.00
2019-06-07T11:58:23.337Z,2428.00
2019-06-07T11:59:23.363Z,2428.00
2019-06-07T12:00:23.330Z,2432.00
2019-06-07T12:01:23.328Z,2436.00
2019-06-07T12:02:23.327Z,2444.00
2019-06-07T12:03:23.323Z,2448.00
2019-06-07T12:04:34.385Z,2448.00
2019-06-07T12:05:23.323Z,2448.00
2019-06-07T12:06:23.322Z,2456.00
2019-06-07T12:07:23.363Z,2472.00
2019-06-07T12:08:23.315Z,2484.00
2019-06-07T12:09:23.314Z,2500.00
2019-06-07T12:10:23.327Z,2516.00
2019-06-07T12:11:23.306Z,2516.00
2019-06-07T12:12:23.308Z,2536.00
2019-06-07T12:13:26.747Z,2552.00
2019-06-07T12:14:23.301Z,2548.00
2019-06-07T12:15:23.299Z,2516.00
2019-06-07T12:16:23.297Z,2488.00
2019-06-07T12:17:23.295Z,2484.00
2019-06-07T12:18:23.295Z,2488.00
2019-06-07T12:19:23.292Z,2488.00
2019-06-07T12:20:23.290Z,2488.00
2019-06-07T12:21:23.289Z,2492.00
2019-06-07T12:22:23.287Z,2492.00
2019-06-07T12:23:23.288Z,2492.00
2019-06-07T12:24:23.282Z,2496.00
2019-06-07T12:25:25.131Z,2500.00
2019-06-07T12:26:23.282Z,2504.00
2019-06-07T12:27:23.276Z,2504.00
2019-06-07T12:28:23.274Z,2516.00
2019-06-07T12:29:23.276Z,2504.00
2019-06-07T12:30:27.683Z,2504.00
2019-06-07T12:31:23.274Z,2500.00
2019-06-07T12:32:23.271Z,2504.00
2019-06-07T12:33:23.267Z,2496.00
2019-06-07T12:34:23.269Z,2496.00